Flight Track Log - Related Links

Times and Time Zones

All times are in EDT time to prevent confusion due to time zone crossing. See the UAL495 flight status page for this flight to view local times or setup timezone preferences in your user account.

Time Position Orientation Groundspeed Altitude Reporting Facility
EDT Latitude Longitude Course Direction KTS MPH feet Rate Location/Type
Mon 12:24:04 PM 39.8167 -104.6333 90° East 196 226 6,400  Level Denver TRACON
Mon 12:25:06 PM 39.8306 -104.5447 78° East 252 290 8,400 1,839 Climbing Denver Center
Mon 12:26:00 PM 39.8667 -104.1979 90° East  Level FlightAware Approximate
Mon 12:26:08 PM 39.8703 -104.4442 63° Northeast 297 342 10,200  Level Denver Center
Mon 12:27:00 PM 39.8667 -104.0413 90° East  Level FlightAware Approximate
Mon 12:27:10 PM 39.8789 -104.3256 85° East 332 382 12,000  Level Denver Center
Mon 12:28:00 PM 39.8667 -103.8846 90° East  Level FlightAware Approximate
Mon 12:28:13 PM 39.8800 -104.1931 89° East 365 420 14,200  Level Denver Center
Mon 12:29:00 PM 39.8833 -103.7314 90° East  Level FlightAware Approximate
Mon 12:29:15 PM 39.8814 -104.0403 89° East 389 448 16,800  Level Denver Center
Mon 12:30:17 PM 39.8853 -103.8919 88° East 413 475 19,100 2,029 Climbing Denver Center
Mon 12:31:31 PM 39.9050 -103.7047 82° East 408 470 21,400 1,721 Climbing Denver Center
Mon 12:32:33 PM 39.9236 -103.5431 81° East 442 509 23,000 1,597 Climbing Denver Center
Mon 12:33:35 PM 39.9408 -103.3744 82° East 463 533 24,700 1,597 Climbing Denver Center
Mon 12:34:37 PM 39.9597 -103.2028 82° East 474 545 26,300 1,500 Climbing Denver Center
Mon 12:35:39 PM 39.9772 -103.0275 83° East 483 556 27,800 1,742 Climbing Denver Center
Mon 12:36:41 PM 39.9992 -102.8203 82° East 490 564 29,900 2,081 Climbing Denver Center
Mon 12:37:43 PM 40.0172 -102.6453 82° East 476 548 32,100 1,790 Climbing Denver Center
Mon 12:38:45 PM 40.0328 -102.4856 83° East 466 536 33,600 1,452 Climbing Denver Center
Mon 12:39:47 PM 40.0506 -102.3000 83° East 461 531 35,100 1,258 Climbing Denver Center
Mon 12:40:49 PM 40.0667 -102.1417 82° East 461 531 36,200 871 Climbing Denver Center
Mon 12:41:51 PM 40.0811 -101.9822 83° East 462 532 36,900 387 Climbing Denver Center
Mon 12:42:53 PM 40.0986 -101.7947 83° East 467 537 37,000 48 Climbing Denver Center
Mon 12:43:55 PM 40.1139 -101.6322 83° East 471 542 37,000  Level Denver Center
Mon 12:44:58 PM 40.1308 -101.4394 83° East 479 551 37,000  Level Denver Center
Mon 12:46:00 PM 40.1453 -101.2758 83° East 475 547 37,000  Level Denver Center
Mon 12:47:02 PM 40.1625 -101.0836 83° East 477 549 37,000  Level Denver Center
Mon 12:48:04 PM 40.1764 -100.9189 84° East 478 550 37,000  Level Denver Center
Mon 12:49:06 PM 40.1919 -100.7253 84° East 482 555 37,000  Level Denver Center
Mon 12:50:08 PM 40.2042 -100.5606 84° East 479 551 37,000  Level Denver Center
Mon 12:51:10 PM 40.2078 -100.3667 89° East 480 552 37,000  Level Denver Center
Mon 12:52:12 PM 40.2092 -100.1992 89° East 482 555 37,000  Level Denver Center
Mon 12:53:14 PM 40.2125 -100.0019 89° East 485 558 37,000  Level Denver Center
Mon 12:54:16 PM 40.2147 -99.8422 89° East 485 558 37,000  Level Denver Center
Mon 12:55:18 PM 40.2175 -99.6297 89° East 487 560 37,000  Level Denver Center
Mon 12:56:20 PM 40.2186 -99.4536 89° East 486 559 37,000  Level Denver Center
Mon 12:57:22 PM 40.2194 -99.2769 90° East 489 563 37,000  Level Denver Center
Mon 12:58:24 PM 40.2211 -99.1017 89° East 486 559 37,000  Level Denver Center
Mon 12:59:26 PM 40.2214 -98.9239 90° East 489 563 37,000  Level Denver Center
Mon 01:00:23 PM 40.2225 -98.7492 89° East 488 562 37,000  Level Minneapolis Center
Mon 01:01:25 PM 40.2231 -98.5725 90° East 488 562 37,000  Level Minneapolis Center
Mon 01:02:27 PM 40.2219 -98.3967 90° East 487 560 37,000  Level Minneapolis Center
Mon 01:03:29 PM 40.2217 -98.1839 90° East 489 563 37,000  Level Minneapolis Center
Mon 01:04:31 PM 40.2214 -98.0075 90° East 487 560 37,000  Level Minneapolis Center
Mon 01:05:32 PM 40.2203 -97.8294 90° East 490 564 37,000  Level Minneapolis Center
Mon 01:06:34 PM 40.2189 -97.6539 91° East 487 560 37,000  Level Minneapolis Center
Mon 01:07:36 PM 40.2178 -97.4769 90° East 487 560 37,000  Level Minneapolis Center
Mon 01:08:38 PM 40.2150 -97.2914 91° East 484 557 37,000  Level Minneapolis Center
Mon 01:09:40 PM 40.2139 -97.1175 90° East 481 554 37,000  Level Minneapolis Center
Mon 01:10:42 PM 40.2122 -96.9444 91° East 479 551 37,000  Level Minneapolis Center
Mon 01:11:44 PM 40.2089 -96.7703 91° East 480 552 37,000  Level Minneapolis Center
Mon 01:12:58 PM 40.2061 -96.5639 91° East 477 549 37,000  Level Minneapolis Center
Mon 01:14:00 PM 40.2022 -96.3533 91° East 482 555 37,000  Level Minneapolis Center
Mon 01:15:02 PM 40.2047 -96.1786 89° East 482 555 37,000  Level Minneapolis Center
Mon 01:16:16 PM 40.2361 -96.0050 77° East 490 564 37,000  Level Minneapolis Center
Mon 01:17:18 PM 40.2767 -95.7928 76° East 500 575 37,000  Level Minneapolis Center
Mon 01:18:20 PM 40.3156 -95.5836 76° East 496 571 37,000  Level Minneapolis Center
Mon 01:19:22 PM 40.3472 -95.4061 77° East 500 575 37,000  Level Minneapolis Center
Mon 01:20:24 PM 40.3792 -95.2306 77° East 499 574 37,000  Level Minneapolis Center
Mon 01:21:25 PM 40.4111 -95.0528 77° East 501 577 37,000  Level Minneapolis Center
Mon 01:22:27 PM 40.4417 -94.8761 77° East 499 574 37,000  Level Minneapolis Center
Mon 01:23:29 PM 40.4733 -94.6975 77° East 501 577 37,000  Level Minneapolis Center
Mon 01:24:31 PM 40.5047 -94.5111 77° East 499 574 37,000  Level Minneapolis Center
Mon 01:25:33 PM 40.5342 -94.3350 78° East 498 573 37,000  Level Minneapolis Center
Mon 01:26:35 PM 40.5703 -94.1211 77° East 502 578 37,000  Level Minneapolis Center
Mon 01:27:36 PM 40.5986 -93.9436 78° East 500 575 37,000  Level Minneapolis Center
Mon 01:28:38 PM 40.6036 -93.7622 88° East 501 577 37,000  Level Minneapolis Center
Mon 01:29:40 PM 40.6092 -93.5819 88° East 498 573 37,000  Level Minneapolis Center
Mon 01:30:42 PM 40.6167 -93.3983 87° East 502 578 37,000  Level Minneapolis Center
Mon 01:31:21 PM 40.6208 -93.2517 88° East 501 577 37,000  Level Kansas City Center
Mon 01:32:08 PM 40.6250 -93.1425 87° East 501 577 37,000  Level Minneapolis Center
Mon 01:33:10 PM 40.6303 -92.9256 88° East 498 573 37,000  Level Minneapolis Center
Mon 01:34:12 PM 40.6369 -92.7419 87° East 498 573 37,000  Level Minneapolis Center
Mon 01:34:27 PM 40.6372 -92.7044 89° East 497 572 37,000  Level Chicago Center
Mon 01:35:29 PM 40.6422 -92.5219 88° East 496 571 37,000  Level Chicago Center
Mon 01:36:31 PM 40.6478 -92.3394 88° East 497 572 37,000  Level Chicago Center
Mon 01:37:33 PM 40.6508 -92.1586 89° East 496 571 37,000  Level Chicago Center
Mon 01:39:00 PM 40.6561 -91.8683 89° East 497 572 37,000  Level Kansas City Center
Mon 01:39:37 PM 40.6592 -91.7594 88° East 498 573 37,000  Level Chicago Center
Mon 01:40:39 PM 40.6622 -91.5789 89° East 497 572 37,000  Level Chicago Center
Mon 01:41:41 PM 40.6644 -91.3969 89° East 499 574 37,000  Level Chicago Center
Mon 01:42:43 PM 40.6692 -91.2078 88° East 499 574 37,000  Level Chicago Center
Mon 01:43:45 PM 40.6703 -91.0250 89° East 498 573 37,000  Level Chicago Center
Mon 01:44:47 PM 40.6644 -90.8431 92° East 498 573 37,000  Level Chicago Center
Mon 01:45:49 PM 40.6592 -90.6231 92° East 502 578 37,000  Level Chicago Center
Mon 01:46:51 PM 40.6547 -90.4400 92° East 501 577 37,000  Level Chicago Center
Mon 01:47:53 PM 40.6500 -90.2458 92° East 499 574 37,000  Level Chicago Center
Mon 01:48:55 PM 40.6450 -90.0636 92° East 501 577 37,000  Level Chicago Center
Mon 01:49:57 PM 40.6383 -89.8822 93° East 501 577 37,000  Level Chicago Center
Mon 01:50:59 PM 40.6322 -89.6967 92° East 508 585 37,000  Level Chicago Center
Mon 01:52:01 PM 40.6278 -89.5031 92° East 500 575 37,000  Level Chicago Center
Mon 01:53:03 PM 40.6211 -89.3206 93° East 501 577 37,000  Level Chicago Center
Mon 01:54:05 PM 40.6150 -89.1367 92° East 502 578 37,000  Level Chicago Center
Mon 01:55:07 PM 40.6089 -88.9539 92° East 501 577 37,000  Level Chicago Center
Mon 01:56:09 PM 40.6017 -88.7539 93° East 501 577 37,000  Level Chicago Center
Mon 01:57:11 PM 40.5944 -88.5719 93° East 502 578 37,000  Level Chicago Center
Mon 01:58:13 PM 40.5858 -88.3561 93° East 499 574 37,000  Level Chicago Center
Mon 01:59:14 PM 40.5792 -88.1747 93° East 501 577 37,000  Level Chicago Center
Mon 02:00:16 PM 40.5703 -87.9931 94° East 503 579 37,000  Level Chicago Center
Mon 02:01:18 PM 40.5628 -87.8133 93° East 500 575 37,000  Level Chicago Center
Mon 02:02:20 PM 40.5550 -87.6328 93° East 500 575 37,000  Level Chicago Center
Mon 02:03:22 PM 40.5442 -87.4172 94° East 498 573 37,000  Level Chicago Center
Mon 02:04:24 PM 40.5342 -87.2400 94° East 492 566 37,000  Level Chicago Center
Mon 02:05:25 PM 40.5233 -87.0458 94° East 499 574 37,000  Level Chicago Center
Mon 02:06:27 PM 40.5136 -86.8639 94° East 497 572 37,000  Level Chicago Center
Mon 02:07:29 PM 40.5042 -86.6819 94° East 496 571 37,000  Level Chicago Center
Mon 02:08:31 PM 40.4931 -86.5003 95° East 495 570 37,000  Level Chicago Center
Mon 02:09:33 PM 40.4825 -86.3178 94° East 496 571 37,000  Level Chicago Center
Mon 02:10:35 PM 40.4719 -86.1356 94° East 495 570 37,000  Level Chicago Center
Mon 02:12:09 PM 40.4531 -85.8614 95° East 495 570 37,000  Level Indianapolis Center
Mon 02:12:38 PM 40.4489 -85.7711 93° East 497 572 37,000  Level Chicago Center
Mon 02:13:40 PM 40.4372 -85.5900 95° East 495 570 37,000  Level Chicago Center
Mon 02:14:42 PM 40.4256 -85.4081 95° East 496 571 37,000  Level Chicago Center
Mon 02:15:43 PM 40.4111 -85.1969 95° East 494 568 37,000  Level Chicago Center
Mon 02:16:16 PM 40.4011 -85.1036 98° East 496 571 37,000  Level Indianapolis Center
Mon 02:17:18 PM 40.3897 -84.9236 95° East 493 567 37,000  Level Indianapolis Center
Mon 02:18:19 PM 40.3750 -84.7336 96° East 495 570 37,000  Level Indianapolis Center
Mon 02:19:21 PM 40.3625 -84.5539 95° East 492 566 37,000  Level Indianapolis Center
Mon 02:20:23 PM 40.3475 -84.3725 96° East 495 570 37,000  Level Indianapolis Center
Mon 02:21:25 PM 40.3328 -84.1906 96° East 496 571 37,000  Level Indianapolis Center
Mon 02:22:27 PM 40.3189 -84.0103 96° East 493 567 37,000  Level Indianapolis Center
Mon 02:23:29 PM 40.3042 -83.8294 96° East 493 567 37,000  Level Indianapolis Center
Mon 02:24:30 PM 40.2794 -83.6486 100° East 497 572 37,000  Level Indianapolis Center
Mon 02:25:32 PM 40.2489 -83.4692 103° East 498 573 37,000  Level Indianapolis Center
Mon 02:26:34 PM 40.2169 -83.2911 103° East 495 570 37,000  Level Indianapolis Center
Mon 02:27:36 PM 40.1794 -83.0842 103° East 494 568 37,000  Level Indianapolis Center
Mon 02:28:38 PM 40.1483 -82.9083 103° East 489 563 37,000  Level Indianapolis Center
Mon 02:29:39 PM 40.1169 -82.7339 103° East 488 562 37,000  Level Indianapolis Center
Mon 02:30:41 PM 40.0850 -82.5594 103° East 488 562 37,000  Level Indianapolis Center
Mon 02:31:43 PM 40.0525 -82.3858 104° East 487 560 37,000  Level Indianapolis Center
Mon 02:32:45 PM 40.0219 -82.2125 103° East 487 560 37,000  Level Indianapolis Center
Mon 02:33:47 PM 39.9889 -82.0397 104° East 486 559 37,000  Level Indianapolis Center
Mon 02:34:49 PM 39.9567 -81.8669 104° East 487 560 37,000  Level Indianapolis Center
Mon 02:35:51 PM 39.9236 -81.6958 104° East 484 557 37,000  Level Indianapolis Center
Mon 02:36:53 PM 39.8917 -81.5275 104° East 475 547 37,000  Level Indianapolis Center
Mon 02:37:46 PM 39.8622 -81.3567 103° East 471 542 37,000  Level Cleveland Center
Mon 02:38:46 PM 39.8319 -81.1914 103° East 471 542 37,000  Level Cleveland Center
Mon 02:39:46 PM 39.7994 -81.0261 104° East 471 542 37,000 -400 Level Cleveland Center
Mon 02:40:46 PM 39.7667 -80.8558 104° East 471 542 36,200 -323 Descending Cleveland Center
Mon 02:42:52 PM 39.7022 -80.5300 104° East 472 543 36,000 -323 Descending Washington Center
Mon 02:43:52 PM 39.6672 -80.3633 105° East 472 543 35,200 -942 Descending Washington Center
Mon 02:44:53 PM 39.6358 -80.2022 104° East 472 543 34,100 -1,250 Descending Washington Center
Mon 02:45:52 PM 39.6044 -80.0386 104° East 467 537 32,700 -1,412 Descending Washington Center
Mon 02:46:52 PM 39.5708 -79.8750 105° East 467 537 31,300 -2,826 Descending Washington Center
Mon 02:47:53 PM 39.5369 -79.7142 105° East 462 532 27,000 -1,869 Descending Washington Center
Mon 02:48:54 PM 39.5067 -79.5617 104° East 451 519 27,500 -454 Climbing Washington Center
Mon 02:49:52 PM 39.4803 -79.4125 103° East 438 504 26,100 -1,627 Descending Washington Center
Mon 02:50:52 PM 39.4478 -79.2439 104° East 433 498 24,300 -1,900 Descending Washington Center
Mon 02:51:52 PM 39.4208 -79.1003 104° East 428 493 22,300 -2,083 Descending Washington Center
Mon 02:52:53 PM 39.3958 -78.9594 103° East 416 479 20,100 -1,918 Descending Washington Center
Mon 02:53:54 PM 39.3742 -78.8350 103° East 404 465 18,400 -1,866 Descending Washington Center
Mon 02:54:52 PM 39.3486 -78.6994 104° East 398 458 16,400 -1,866 Descending Washington Center
Mon 02:55:53 PM 39.3267 -78.5725 103° East 376 433 14,700 -1,623 Descending Washington Center
Mon 02:56:54 PM 39.3025 -78.4508 104° East 362 417 13,100 -1,613 Descending Washington Center
Mon 02:57:52 PM 39.2739 -78.3369 108° East 345 397 11,500 -1,068 Descending Washington Center
Mon 02:58:52 PM 39.2261 -78.2469 124° Southeast 317 365 11,000 -893 Descending Washington Center
Mon 02:59:53 PM 39.1819 -78.1675 126° Southeast 298 343 9,700 -1,240 Descending Washington Center
Mon 03:00:53 PM 39.1378 -78.0856 125° Southeast 284 327 8,500 -1,200 Descending Washington Center
Mon 03:01:53 PM 39.0956 -78.0042 124° Southeast 279 321 7,300 -893 Descending Washington Center
Mon 03:02:54 PM 39.0533 -77.9250 124° Southeast 274 315 6,700 -496 Descending Washington Center
Mon 03:03:54 PM 39.0111 -77.8436 124° Southeast 267 307 6,300 -240 Descending Washington Center
Mon 03:05:49 PM 38.9500 -77.6667 114° Southeast 268 308 6,000 -103 Descending Potomac TRACON
Mon 03:06:49 PM 38.9833 -77.6000 57° Northeast 243 280 6,000  Level Potomac TRACON
Mon 03:07:43 PM 39.0500 -77.5667 21° North 247 284 6,000  Level Potomac TRACON
Mon 03:08:49 PM 39.1167 -77.5667 360° North 246 283 6,000 -95 Level Potomac TRACON
Mon 03:09:49 PM 39.1833 -77.5833 349° North 246 283 5,800 -500 Descending Potomac TRACON
Mon 03:10:49 PM 39.2333 -77.5333 38° Northeast 248 285 5,000 -500 Descending Potomac TRACON
Mon 03:11:49 PM 39.2167 -77.4667 108° East 211 243 4,800 -496 Descending Potomac TRACON
Mon 03:12:50 PM 39.1667 -77.4500 166° South 184 212 4,000 -750 Descending Potomac TRACON
Mon 03:13:49 PM 39.1167 -77.4500 180° South 181 208 3,300 -850 Descending Potomac TRACON
Mon 03:14:50 PM 39.0667 -77.4500 180° South 172 198 2,300 -893 Descending Potomac TRACON
Mon 03:15:50 PM 39.0333 -77.4667 201° Southwest 141 162 1,500 -750 Descending Potomac TRACON
Mon 03:16:50 PM 39.0000 -77.4667 180° South 127 146 800 -700 Descending Potomac TRACON

Login

Don't have an account? Register now (free) for customized features, flight alerts, and more!